Time;durP1;ratioP1;P1;durP2;ratioP2;P2;SDS_P1;SDS_P2;PMS_P1;PMS_P2;Temp;Humidity;BMP_temperature;BMP_pressure;BME280_temperature;BME280_humidity;BME280_pressure;Samples;Min_cycle;Max_cycle;Signal;HPM_P1;HPM_P2
2023/03/07 00:01:40;;;;;;;9.37;4.33;;;;;4.40;99556.00;;;;9614056;30;20232;-79
2023/03/07 00:06:42;;;;;;;5.87;4.03;;;;;4.40;99556.00;;;;9631141;30;20232;-78
2023/03/07 00:11:44;;;;;;;13.57;4.33;;;;;4.30;99545.00;;;;9641849;30;20686;-79
2023/03/07 00:16:50;;;;;;;8.17;4.23;;;;;4.30;99545.00;;;;9607323;30;20237;-79
2023/03/07 00:21:52;;;;;;;6.60;3.90;;;;;4.30;99536.00;;;;9642259;30;20208;-79
2023/03/07 00:26:54;;;;;;;13.17;4.97;;;;;4.40;99543.00;;;;9627548;30;20213;-78
2023/03/07 00:31:56;;;;;;;10.87;4.73;;;;;4.40;99540.00;;;;9626912;30;20855;-79
2023/03/07 00:36:58;;;;;;;9.23;5.13;;;;;4.40;99526.00;;;;9605236;30;20316;-79
2023/03/07 00:42:00;;;;;;;9.27;5.23;;;;;4.40;99526.00;;;;9620733;30;20292;-79
2023/03/07 00:47:02;;;;;;;14.53;6.40;;;;;4.40;99530.00;;;;9622913;30;20260;-79
2023/03/07 00:52:04;;;;;;;14.80;7.57;;;;;4.40;99521.00;;;;9626716;30;20291;-79
2023/03/07 00:57:06;;;;;;;20.03;11.07;;;;;4.40;99514.00;;;;9656296;30;20319;-79
2023/03/07 01:02:08;;;;;;;22.40;11.07;;;;;4.40;99511.00;;;;9606763;30;20245;-79
2023/03/07 01:07:10;;;;;;;19.47;11.60;;;;;4.50;99511.00;;;;9635956;30;20208;-79
2023/03/07 01:12:12;;;;;;;22.33;11.47;;;;;4.40;99500.00;;;;9640130;30;20299;-79
2023/03/07 01:17:14;;;;;;;18.13;10.77;;;;;4.40;99497.00;;;;9639748;30;20224;-79
2023/03/07 01:22:16;;;;;;;19.50;11.83;;;;;4.40;99487.00;;;;9653434;30;20208;-79
2023/03/07 01:27:18;;;;;;;19.40;10.40;;;;;4.40;99482.00;;;;9640552;30;20224;-78
2023/03/07 01:32:20;;;;;;;17.70;10.77;;;;;4.30;99474.00;;;;9652351;30;20247;-79
2023/03/07 01:37:22;;;;;;;22.87;10.63;;;;;4.30;99461.00;;;;9600787;30;20228;-79
2023/03/07 01:42:29;;;;;;;21.53;11.40;;;;;4.30;99465.00;;;;9623675;30;20213;-79
2023/03/07 01:47:33;;;;;;;20.30;12.00;;;;;4.30;99453.00;;;;9639086;30;20299;-79
2023/03/07 01:52:40;;;;;;;19.80;12.77;;;;;4.30;99448.00;;;;9638457;30;20205;-79
2023/03/07 01:57:45;;;;;;;18.87;12.40;;;;;4.20;99445.00;;;;9637332;30;20228;-79
2023/03/07 02:03:13;;;;;;;23.20;13.17;;;;;4.20;99431.00;;;;9655891;30;20239;-80
2023/03/07 02:08:19;;;;;;;21.40;12.83;;;;;4.20;99430.00;;;;9573655;30;20709;-80
2023/03/07 02:13:20;;;;;;;21.60;12.87;;;;;4.20;99425.00;;;;9617484;30;20205;-80
2023/03/07 02:18:26;;;;;;;21.47;13.13;;;;;4.20;99412.00;;;;9608759;30;20280;-80
2023/03/07 02:23:28;;;;;;;25.27;13.73;;;;;4.20;99416.00;;;;9616666;30;20236;-80
2023/03/07 02:28:31;;;;;;;22.37;12.87;;;;;4.10;99393.00;;;;9625619;30;20200;-80
2023/03/07 02:33:33;;;;;;;23.57;13.33;;;;;4.10;99401.00;;;;9637365;30;20227;-80
2023/03/07 02:38:43;;;;;;;26.57;13.63;;;;;4.10;99386.00;;;;9601657;30;20248;-80
2023/03/07 02:43:45;;;;;;;21.17;13.03;;;;;4.10;99396.00;;;;9651247;30;20212;-80
2023/03/07 02:48:47;;;;;;;23.27;13.70;;;;;4.10;99378.00;;;;9630336;30;20205;-80
2023/03/07 02:53:51;;;;;;;24.03;13.97;;;;;4.10;99386.00;;;;9638513;30;20707;-81
2023/03/07 02:58:53;;;;;;;24.23;12.93;;;;;4.10;99383.00;;;;9619838;30;20919;-81
2023/03/07 03:03:55;;;;;;;19.67;12.50;;;;;4.10;99374.00;;;;9630126;30;20220;-80
2023/03/07 03:08:57;;;;;;;23.90;13.93;;;;;4.10;99372.00;;;;9623144;30;20263;-80
2023/03/07 03:14:00;;;;;;;23.17;13.33;;;;;4.10;99376.00;;;;9632110;30;20242;-80
2023/03/07 03:19:03;;;;;;;25.07;14.03;;;;;4.10;99369.00;;;;9664783;30;20505;-80
2023/03/07 03:24:06;;;;;;;22.20;13.37;;;;;4.10;99372.00;;;;9655734;30;20204;-80
2023/03/07 03:29:09;;;;;;;23.03;14.43;;;;;4.10;99372.00;;;;9665951;30;20208;-80
2023/03/07 03:34:12;;;;;;;23.80;13.70;;;;;4.10;99360.00;;;;9647599;30;20208;-80
2023/03/07 03:39:14;;;;;;;21.03;13.87;;;;;4.10;99354.00;;;;9606816;30;20238;-80
2023/03/07 03:44:21;;;;;;;24.30;14.43;;;;;4.10;99343.00;;;;9622178;30;20284;-81
2023/03/07 03:49:23;;;;;;;24.60;14.13;;;;;4.10;99338.00;;;;9621380;30;20243;-81
2023/03/07 03:54:27;;;;;;;23.83;13.57;;;;;4.10;99330.00;;;;9607846;30;20212;-81
2023/03/07 03:59:31;;;;;;;24.50;13.63;;;;;4.10;99328.00;;;;9607341;30;20233;-80
2023/03/07 04:04:34;;;;;;;24.00;14.50;;;;;4.10;99333.00;;;;9641383;30;20215;-80
2023/03/07 04:09:36;;;;;;;23.13;12.87;;;;;4.10;99322.00;;;;9676261;30;20274;-80
2023/03/07 04:14:39;;;;;;;25.20;13.03;;;;;4.10;99334.00;;;;9677492;30;20732;-79
2023/03/07 04:19:42;;;;;;;21.87;13.43;;;;;4.10;99323.00;;;;9646928;30;20231;-79
2023/03/07 04:24:44;;;;;;;21.07;13.17;;;;;4.10;99322.00;;;;9655361;30;20212;-80
2023/03/07 04:29:46;;;;;;;24.67;14.50;;;;;4.10;99304.00;;;;9626422;30;20226;-80
2023/03/07 04:34:53;;;;;;;20.87;13.17;;;;;4.10;99307.00;;;;9645216;30;20577;-80
2023/03/07 04:39:55;;;;;;;22.93;12.93;;;;;4.00;99290.00;;;;9626747;30;20693;-79
2023/03/07 04:44:57;;;;;;;25.40;13.77;;;;;4.00;99280.00;;;;9640228;30;20936;-80
2023/03/07 04:49:59;;;;;;;22.53;13.00;;;;;4.00;99289.00;;;;9632714;30;20701;-80
2023/03/07 04:55:02;;;;;;;23.27;12.63;;;;;4.00;99276.00;;;;9668034;30;20204;-81
2023/03/07 05:00:13;;;;;;;25.83;13.60;;;;;4.00;99279.00;;;;9630352;30;20239;-80
2023/03/07 05:05:16;;;;;;;20.73;13.27;;;;;4.00;99278.00;;;;9656936;30;20204;-81
2023/03/07 05:10:18;;;;;;;23.90;13.80;;;;;4.10;99273.00;;;;9675087;30;20681;-81
2023/03/07 05:15:20;;;;;;;23.30;13.00;;;;;4.10;99260.00;;;;9643769;30;20258;-80
2023/03/07 05:20:22;;;;;;;22.00;12.27;;;;;4.10;99270.00;;;;9638418;30;20208;-80
2023/03/07 05:25:25;;;;;;;20.70;13.23;;;;;4.10;99267.00;;;;9640193;30;20291;-81
2023/03/07 05:30:27;;;;;;;20.73;12.20;;;;;4.10;99252.00;;;;9652725;30;20205;-80
2023/03/07 05:35:29;;;;;;;23.40;13.13;;;;;4.10;99253.00;;;;9625134;30;20291;-80
2023/03/07 05:40:33;;;;;;;19.63;12.33;;;;;4.10;99243.00;;;;9639977;30;20212;-81
2023/03/07 05:45:36;;;;;;;20.43;12.40;;;;;4.10;99242.00;;;;9609870;30;20219;-81
2023/03/07 05:50:41;;;;;;;17.70;11.63;;;;;4.10;99241.00;;;;9638839;30;20204;-81
2023/03/07 05:55:44;;;;;;;16.53;10.40;;;;;4.10;99225.00;;;;9625075;30;20216;-80
2023/03/07 06:00:48;;;;;;;19.17;11.80;;;;;4.10;99216.00;;;;9653510;30;20365;-80
2023/03/07 06:05:52;;;;;;;20.77;12.37;;;;;4.20;99233.00;;;;9652968;30;20216;-81
2023/03/07 06:10:54;;;;;;;21.07;12.27;;;;;4.30;99235.00;;;;9629283;30;20224;-81
2023/03/07 06:15:57;;;;;;;14.53;9.83;;;;;4.30;99227.00;;;;9609281;30;20224;-81
2023/03/07 06:21:05;;;;;;;20.30;11.73;;;;;4.30;99226.00;;;;9633284;30;20212;-82
2023/03/07 06:26:12;;;;;;;20.27;13.70;;;;;4.30;99228.00;;;;9637662;30;20240;-81
2023/03/07 06:31:18;;;;;;;21.53;11.97;;;;;4.30;99224.00;;;;9638864;30;20220;-81
2023/03/07 06:36:21;;;;;;;23.97;13.27;;;;;4.40;99237.00;;;;9617613;30;20232;-81
2023/03/07 06:41:32;;;;;;;26.13;13.23;;;;;4.40;99226.00;;;;9624846;30;20209;-81
2023/03/07 06:46:37;;;;;;;18.03;12.20;;;;;4.50;99229.00;;;;9637861;30;20224;-81
2023/03/07 06:51:46;;;;;;;22.27;12.10;;;;;4.50;99240.00;;;;9647554;30;20193;-82
2023/03/07 06:56:50;;;;;;;17.83;11.87;;;;;4.60;99237.00;;;;9618598;30;20254;-81
2023/03/07 07:01:55;;;;;;;21.77;12.97;;;;;4.70;99236.00;;;;9630642;30;20228;-82
2023/03/07 07:06:58;;;;;;;19.97;12.93;;;;;4.80;99245.00;;;;9630675;30;20284;-81
2023/03/07 07:12:03;;;;;;;15.93;11.90;;;;;4.80;99256.00;;;;9659247;30;20208;-81
2023/03/07 07:17:07;;;;;;;23.40;14.30;;;;;4.80;99257.00;;;;9644521;30;20251;-80
2023/03/07 07:22:10;;;;;;;19.70;12.70;;;;;4.80;99253.00;;;;9646540;30;20220;-81
2023/03/07 07:27:13;;;;;;;20.43;12.23;;;;;4.80;99251.00;;;;9629222;30;20604;-80
2023/03/07 07:32:15;;;;;;;22.33;12.93;;;;;4.80;99251.00;;;;9642355;30;20200;-80
2023/03/07 07:37:18;;;;;;;20.30;12.23;;;;;4.80;99257.00;;;;9606765;30;20243;-79
2023/03/07 07:42:20;;;;;;;18.07;12.67;;;;;4.80;99240.00;;;;9607470;30;20208;-80
2023/03/07 07:47:38;;;;;;;22.47;13.10;;;;;4.90;99259.00;;;;9613117;30;20223;-80
2023/03/07 07:52:40;;;;;;;19.50;12.43;;;;;5.00;99259.00;;;;9605664;30;20209;-80
2023/03/07 07:57:42;;;;;;;19.40;12.07;;;;;5.00;99260.00;;;;9606205;30;20666;-80
2023/03/07 08:02:49;;;;;;;16.50;11.57;;;;;4.90;99251.00;;;;9640803;30;20217;-79
2023/03/07 08:07:51;;;;;;;17.07;11.47;;;;;5.00;99256.00;;;;9641572;30;20244;-79
2023/03/07 08:12:53;;;;;;;14.60;9.50;;;;;5.10;99251.00;;;;9655296;30;20242;-80
2023/03/07 08:17:54;;;;;;;13.60;9.47;;;;;5.30;99255.00;;;;9625075;30;20225;-79
2023/03/07 08:22:57;;;;;;;14.13;9.20;;;;;5.40;99256.00;;;;9627154;30;20275;-79
2023/03/07 08:28:01;;;;;;;13.03;8.93;;;;;5.40;99247.00;;;;9626205;30;20227;-80
2023/03/07 08:33:03;;;;;;;16.33;9.70;;;;;5.40;99257.00;;;;9636221;30;20601;-79
2023/03/07 08:38:05;;;;;;;13.17;8.80;;;;;5.30;99248.00;;;;9625814;30;20224;-79
2023/03/07 08:43:07;;;;;;;13.13;9.10;;;;;5.40;99260.00;;;;9640180;30;20196;-79
2023/03/07 08:48:09;;;;;;;17.70;10.23;;;;;5.60;99252.00;;;;9637795;30;20232;-80
2023/03/07 08:53:15;;;;;;;14.40;10.60;;;;;5.60;99255.00;;;;9639833;30;20240;-79
2023/03/07 08:58:17;;;;;;;13.93;10.00;;;;;5.50;99254.00;;;;9638686;30;20575;-79
2023/03/07 09:03:19;;;;;;;15.90;10.93;;;;;5.60;99247.00;;;;9652923;30;20287;-79
2023/03/07 09:08:21;;;;;;;15.73;9.37;;;;;5.50;99260.00;;;;9639299;30;20290;-80
2023/03/07 09:13:23;;;;;;;17.30;10.23;;;;;5.60;99261.00;;;;9623666;30;20272;-79
2023/03/07 09:18:24;;;;;;;15.67;10.07;;;;;5.50;99254.00;;;;9658253;30;20224;-79
2023/03/07 09:23:26;;;;;;;15.43;9.60;;;;;5.40;99260.00;;;;9638507;30;20703;-79
2023/03/07 09:28:28;;;;;;;16.93;9.77;;;;;5.40;99259.00;;;;9637374;30;20686;-80
2023/03/07 09:33:31;;;;;;;16.53;8.67;;;;;5.30;99260.00;;;;9604025;30;20232;-79
2023/03/07 09:38:33;;;;;;;16.13;8.93;;;;;5.30;99255.00;;;;9617601;30;20332;-79
2023/03/07 09:43:46;;;;;;;12.63;7.47;;;;;5.20;99270.00;;;;9620421;30;20307;-79
2023/03/07 09:49:14;;;;;;;10.17;6.77;;;;;5.20;99261.00;;;;9643659;30;20271;-79
2023/03/07 09:54:20;;;;;;;11.33;5.97;;;;;5.10;99281.00;;;;9638230;30;20207;-79
2023/03/07 09:59:42;;;;;;;6.37;4.57;;;;;5.20;99273.00;;;;9624806;30;20232;-79
2023/03/07 10:04:55;;;;;;;5.10;3.87;;;;;5.20;99268.00;;;;9631727;30;20219;-80
2023/03/07 10:10:04;;;;;;;5.67;3.80;;;;;5.30;99267.00;;;;9681602;30;20211;-79
2023/03/07 10:15:37;;;;;;;7.03;5.03;;;;;5.30;99261.00;;;;9633460;30;20208;-79
2023/03/07 10:20:58;;;;;;;4.63;4.00;;;;;5.30;99266.00;;;;9614700;30;20232;-80
2023/03/07 10:26:05;;;;;;;7.30;4.13;;;;;5.40;99258.00;;;;9623408;30;20302;-79
2023/03/07 10:31:22;;;;;;;3.23;2.60;;;;;5.50;99260.00;;;;9665412;30;20259;-79
2023/03/07 10:36:40;;;;;;;4.53;2.53;;;;;5.70;99262.00;;;;9622985;30;20309;-80
2023/03/07 10:41:42;;;;;;;3.37;2.90;;;;;6.00;99249.00;;;;9621845;30;20215;-79
2023/03/07 10:46:45;;;;;;;6.27;2.90;;;;;6.20;99241.00;;;;9636488;30;20212;-80
2023/03/07 10:52:24;;;;;;;4.63;2.93;;;;;6.30;99244.00;;;;9621976;30;20197;-79
2023/03/07 10:57:26;;;;;;;4.60;3.20;;;;;6.20;99243.00;;;;9622435;30;20807;-79
2023/03/07 11:02:30;;;;;;;4.53;3.20;;;;;6.10;99254.00;;;;9650801;30;20240;-79
2023/03/07 11:07:35;;;;;;;4.87;2.57;;;;;6.00;99242.00;;;;9628651;30;20300;-79
2023/03/07 11:12:45;;;;;;;5.67;2.93;;;;;6.00;99249.00;;;;9610380;30;20950;-79
2023/03/07 11:17:48;;;;;;;4.93;3.30;;;;;5.90;99251.00;;;;9658868;30;20276;-80
2023/03/07 11:23:12;;;;;;;3.73;3.30;;;;;5.90;99253.00;;;;9637901;30;20225;-79
2023/03/07 11:28:34;;;;;;;5.83;4.07;;;;;5.80;99253.00;;;;9641646;30;20213;-78
2023/03/07 11:33:35;;;;;;;8.70;4.30;;;;;6.00;99259.00;;;;9657718;30;20236;-79
2023/03/07 11:38:47;;;;;;;5.63;3.93;;;;;5.70;99253.00;;;;9639825;30;20302;-79
2023/03/07 11:43:58;;;;;;;5.07;3.60;;;;;5.50;99250.00;;;;9656487;30;20236;-79
2023/03/07 11:49:19;;;;;;;4.00;3.03;;;;;5.60;99258.00;;;;9655276;30;20209;-79
2023/03/07 11:54:36;;;;;;;5.13;3.53;;;;;5.50;99255.00;;;;9656063;30;20204;-79
2023/03/07 11:59:55;;;;;;;3.57;3.27;;;;;5.30;99250.00;;;;9661610;30;20236;-79
2023/03/07 12:05:35;;;;;;;5.83;3.83;;;;;5.20;99250.00;;;;9634115;30;20217;-79
2023/03/07 12:11:03;;;;;;;5.57;4.20;;;;;5.20;99243.00;;;;9640516;30;20666;-78
2023/03/07 12:16:22;;;;;;;5.20;3.83;;;;;5.70;99257.00;;;;9627750;30;20208;-79
2023/03/07 12:21:27;;;;;;;5.50;4.50;;;;;6.00;99253.00;;;;9606932;30;20209;-79
2023/03/07 12:26:49;;;;;;;5.23;4.27;;;;;6.10;99248.00;;;;9605836;30;20213;-79
2023/03/07 12:31:56;;;;;;;4.73;3.97;;;;;6.20;99248.00;;;;9646805;30;20688;-79
2023/03/07 12:37:08;;;;;;;5.03;3.33;;;;;6.00;99254.00;;;;9655297;30;20307;-79
2023/03/07 12:42:25;;;;;;;3.03;2.73;;;;;5.70;99259.00;;;;9654382;30;20205;-79
2023/03/07 12:47:55;;;;;;;4.70;3.70;;;;;5.70;99248.00;;;;9619843;30;20212;-79
2023/03/07 12:53:21;;;;;;;4.27;3.50;;;;;5.80;99250.00;;;;9605662;30;20216;-79
2023/03/07 12:58:49;;;;;;;4.53;3.53;;;;;5.30;99261.00;;;;9624587;30;20232;-78
2023/03/07 13:04:35;;;;;;;16.20;11.17;;;;;5.10;99258.00;;;;9625960;30;20216;-79
2023/03/07 13:09:42;;;;;;;18.83;13.93;;;;;5.30;99249.00;;;;9618028;30;20219;-78
2023/03/07 13:14:50;;;;;;;21.33;15.63;;;;;5.20;99255.00;;;;9641289;30;20239;-79
2023/03/07 13:19:54;;;;;;;13.80;9.40;;;;;5.20;99254.00;;;;9654194;30;20228;-79
2023/03/07 13:25:19;;;;;;;9.80;7.27;;;;;5.10;99247.00;;;;9639423;30;20209;-79
2023/03/07 13:30:28;;;;;;;11.10;7.57;;;;;5.00;99262.00;;;;9639025;30;20212;-78
2023/03/07 13:35:31;;;;;;;8.13;6.37;;;;;5.20;99269.00;;;;9653356;30;20204;-78
2023/03/07 13:40:35;;;;;;;7.37;4.80;;;;;5.10;99270.00;;;;9639001;30;20224;-79
2023/03/07 13:45:37;;;;;;;9.03;5.33;;;;;5.10;99265.00;;;;9607292;30;20213;-78
2023/03/07 13:50:59;;;;;;;8.10;5.47;;;;;4.90;99269.00;;;;9604521;30;20575;-78
2023/03/07 13:56:14;;;;;;;6.17;4.63;;;;;4.90;99269.00;;;;9600304;30;20526;-79
2023/03/07 14:01:23;;;;;;;5.73;4.37;;;;;4.90;99265.00;;;;9642877;30;20709;-78
2023/03/07 14:06:44;;;;;;;5.30;4.73;;;;;5.10;99260.00;;;;9653591;30;20644;-78
2023/03/07 14:12:08;;;;;;;6.17;4.83;;;;;5.50;99269.00;;;;9639243;30;20210;-78
2023/03/07 14:17:41;;;;;;;5.30;4.07;;;;;5.60;99291.00;;;;9652676;30;20228;-78
2023/03/07 14:23:12;;;;;;;6.03;4.10;;;;;5.50;99287.00;;;;9637924;30;20244;-78
2023/03/07 14:28:25;;;;;;;6.10;3.50;;;;;5.60;99290.00;;;;9636286;30;20231;-78
2023/03/07 14:33:32;;;;;;;3.83;3.13;;;;;5.50;99283.00;;;;9651006;30;20204;-79
2023/03/07 14:38:34;;;;;;;3.57;3.23;;;;;5.40;99299.00;;;;9630448;30;20233;-78
2023/03/07 14:44:05;;;;;;;3.23;2.63;;;;;5.60;99296.00;;;;9603515;30;20228;-78
2023/03/07 14:49:19;;;;;;;3.37;2.90;;;;;5.40;99299.00;;;;9602260;30;20207;-78
2023/03/07 14:54:25;;;;;;;6.93;4.30;;;;;5.20;99310.00;;;;9626541;30;20212;-78
2023/03/07 14:59:27;;;;;;;3.87;3.40;;;;;5.30;99299.00;;;;9658200;30;20235;-78
2023/03/07 15:04:32;;;;;;;4.30;3.30;;;;;5.10;99312.00;;;;9629585;30;20267;-78
2023/03/07 15:09:34;;;;;;;4.43;3.50;;;;;4.90;99315.00;;;;9603452;30;20698;-78
2023/03/07 15:14:43;;;;;;;3.87;3.10;;;;;4.70;99319.00;;;;9623340;30;20201;-79
2023/03/07 15:20:20;;;;;;;3.77;2.67;;;;;4.30;99329.00;;;;9643605;30;20322;-78
2023/03/07 15:25:22;;;;;;;4.30;3.50;;;;;4.00;99341.00;;;;9594551;30;20209;-78
2023/03/07 15:30:31;;;;;;;7.47;4.83;;;;;3.70;99349.00;;;;9627193;30;21017;-78
2023/03/07 15:35:32;;;;;;;8.73;6.50;;;;;3.70;99354.00;;;;9647713;30;20217;-78
2023/03/07 15:40:35;;;;;;;8.50;6.53;;;;;3.70;99343.00;;;;9622199;30;20225;-78
2023/03/07 15:45:39;;;;;;;13.70;10.53;;;;;3.60;99348.00;;;;9633574;30;20725;-78
2023/03/07 15:50:41;;;;;;;17.63;12.57;;;;;3.60;99357.00;;;;9641739;30;20205;-78
2023/03/07 15:55:45;;;;;;;16.73;11.77;;;;;3.60;99357.00;;;;9628491;30;20239;-79
2023/03/07 16:00:47;;;;;;;4.30;3.40;;;;;3.50;99366.00;;;;9656885;30;20601;-78
2023/03/07 16:05:49;;;;;;;2.83;2.27;;;;;3.30;99364.00;;;;9663581;30;20267;-78
2023/03/07 16:10:57;;;;;;;3.07;2.30;;;;;3.30;99366.00;;;;9656046;30;20251;-78
2023/03/07 16:16:01;;;;;;;3.77;3.30;;;;;3.20;99372.00;;;;9655727;30;20204;-78
2023/03/07 16:21:04;;;;;;;4.90;3.93;;;;;3.10;99391.00;;;;9655741;30;20255;-78
2023/03/07 16:26:11;;;;;;;5.37;4.40;;;;;3.10;99381.00;;;;9655468;30;20215;-78
2023/03/07 16:31:14;;;;;;;6.17;5.27;;;;;3.10;99392.00;;;;9644446;30;20208;-78
2023/03/07 16:36:17;;;;;;;11.03;8.90;;;;;3.00;99390.00;;;;9627346;30;20844;-78
2023/03/07 16:41:20;;;;;;;11.13;8.60;;;;;3.00;99397.00;;;;9614491;30;20250;-78
2023/03/07 16:46:23;;;;;;;11.50;7.97;;;;;2.90;99405.00;;;;9618659;30;20213;-78
2023/03/07 16:51:27;;;;;;;11.97;8.37;;;;;2.90;99397.00;;;;9640506;30;20299;-78
2023/03/07 16:56:33;;;;;;;14.90;9.63;;;;;2.90;99403.00;;;;9641371;30;20211;-78
2023/03/07 17:01:35;;;;;;;12.10;8.50;;;;;2.90;99403.00;;;;9632005;30;20232;-78
2023/03/07 17:06:38;;;;;;;8.50;6.33;;;;;2.80;99417.00;;;;9635904;30;20201;-78
2023/03/07 17:11:50;;;;;;;8.90;5.70;;;;;2.80;99425.00;;;;9640142;30;20228;-78
2023/03/07 17:16:52;;;;;;;7.23;6.30;;;;;2.80;99420.00;;;;9610708;30;20208;-78
2023/03/07 17:21:57;;;;;;;9.60;7.10;;;;;2.80;99423.00;;;;9638563;30;20930;-78
2023/03/07 17:27:02;;;;;;;12.60;6.27;;;;;2.70;99431.00;;;;9611134;30;20217;-78
2023/03/07 17:32:04;;;;;;;11.80;7.10;;;;;2.60;99442.00;;;;9662707;30;20311;-78
2023/03/07 17:37:07;;;;;;;12.20;8.97;;;;;2.60;99443.00;;;;9635298;30;20219;-78
2023/03/07 17:42:08;;;;;;;15.20;10.13;;;;;2.60;99451.00;;;;9638785;30;20228;-78
2023/03/07 17:47:10;;;;;;;17.23;10.53;;;;;2.60;99465.00;;;;9638651;30;20299;-78
2023/03/07 17:52:13;;;;;;;17.67;12.23;;;;;2.60;99478.00;;;;9638632;30;20204;-78
2023/03/07 17:57:15;;;;;;;17.33;10.97;;;;;2.50;99485.00;;;;9652341;30;20205;-79
2023/03/07 18:02:17;;;;;;;15.93;10.20;;;;;2.60;99487.00;;;;9637373;30;20236;-78
2023/03/07 18:07:20;;;;;;;15.37;9.43;;;;;2.60;99489.00;;;;9650091;30;20233;-78
2023/03/07 18:12:22;;;;;;;11.97;8.73;;;;;2.60;99495.00;;;;9629063;30;20789;-78
2023/03/07 18:17:24;;;;;;;14.90;9.80;;;;;2.60;99504.00;;;;9602853;30;20287;-78
2023/03/07 18:22:30;;;;;;;11.23;7.27;;;;;2.50;99508.00;;;;9640528;30;20259;-78
2023/03/07 18:27:32;;;;;;;12.03;8.10;;;;;2.40;99521.00;;;;9630295;30;20262;-78
2023/03/07 18:32:34;;;;;;;13.07;8.40;;;;;2.30;99523.00;;;;9636823;30;20553;-78
2023/03/07 18:37:36;;;;;;;12.17;8.13;;;;;2.30;99524.00;;;;9635630;30;20248;-77
2023/03/07 18:42:39;;;;;;;11.97;8.27;;;;;2.20;99538.00;;;;9649043;30;20231;-77
2023/03/07 18:47:41;;;;;;;16.13;11.07;;;;;2.10;99546.00;;;;9650527;30;20292;-78
2023/03/07 18:52:43;;;;;;;16.13;10.97;;;;;2.10;99539.00;;;;9606694;30;20209;-78
2023/03/07 18:57:44;;;;;;;18.07;11.83;;;;;2.00;99560.00;;;;9651455;30;20259;-78
2023/03/07 19:02:46;;;;;;;23.63;15.93;;;;;2.00;99565.00;;;;9637105;30;20223;-78
2023/03/07 19:07:48;;;;;;;23.63;15.37;;;;;1.90;99564.00;;;;9637498;30;20212;-78
2023/03/07 19:12:50;;;;;;;25.03;16.77;;;;;1.90;99581.00;;;;9671816;30;20196;-78
2023/03/07 19:17:52;;;;;;;25.07;16.80;;;;;1.90;99583.00;;;;9640978;30;20712;-78
2023/03/07 19:22:54;;;;;;;20.87;11.63;;;;;1.80;99586.00;;;;9615387;30;20213;-78
2023/03/07 19:27:56;;;;;;;20.10;13.83;;;;;1.70;99582.00;;;;9587419;30;20761;-78
2023/03/07 19:32:58;;;;;;;13.10;8.90;;;;;1.70;99580.00;;;;9614984;30;20201;-78
2023/03/07 19:38:00;;;;;;;12.20;8.17;;;;;1.70;99588.00;;;;9646602;30;20760;-78
2023/03/07 19:43:02;;;;;;;10.70;7.37;;;;;1.60;99590.00;;;;9628349;30;20215;-78
2023/03/07 19:48:04;;;;;;;12.27;7.90;;;;;1.60;99584.00;;;;9642226;30;20216;-78
2023/03/07 19:53:06;;;;;;;11.90;8.30;;;;;1.60;99586.00;;;;9641875;30;20733;-78
2023/03/07 19:58:09;;;;;;;14.20;9.93;;;;;1.70;99572.00;;;;9656389;30;20228;-78
2023/03/07 20:03:13;;;;;;;15.70;9.93;;;;;1.70;99577.00;;;;9654873;30;20220;-78
2023/03/07 20:08:15;;;;;;;14.87;10.57;;;;;1.60;99573.00;;;;9673297;30;20211;-78
2023/03/07 20:13:17;;;;;;;15.30;9.87;;;;;1.60;99585.00;;;;9663003;30;20208;-78
2023/03/07 20:18:19;;;;;;;17.10;12.17;;;;;1.60;99579.00;;;;9649547;30;20303;-78
2023/03/07 20:23:21;;;;;;;17.07;11.77;;;;;1.60;99580.00;;;;9654887;30;20224;-78
2023/03/07 20:28:23;;;;;;;22.77;15.33;;;;;1.60;99576.00;;;;9655416;30;20208;-79
2023/03/07 20:33:25;;;;;;;19.13;13.10;;;;;1.60;99576.00;;;;9644123;30;20219;-79
2023/03/07 20:38:27;;;;;;;21.13;14.00;;;;;1.60;99585.00;;;;9641092;30;20724;-79
2023/03/07 20:43:30;;;;;;;23.17;15.37;;;;;1.60;99583.00;;;;9640425;30;20275;-79
2023/03/07 20:48:33;;;;;;;21.17;14.33;;;;;1.70;99592.00;;;;9640558;30;20271;-78
2023/03/07 20:53:35;;;;;;;20.30;14.07;;;;;1.60;99587.00;;;;9639717;30;20208;-79
2023/03/07 20:58:38;;;;;;;21.80;14.57;;;;;1.60;99583.00;;;;9633906;30;20311;-79
2023/03/07 21:03:39;;;;;;;26.13;16.57;;;;;1.70;99592.00;;;;9640082;30;20220;-79
2023/03/07 21:08:42;;;;;;;21.43;15.23;;;;;1.70;99601.00;;;;9640194;30;20208;-79
2023/03/07 21:13:46;;;;;;;26.73;15.93;;;;;1.70;99601.00;;;;9625866;30;20232;-79
2023/03/07 21:18:48;;;;;;;27.00;17.47;;;;;1.70;99595.00;;;;9639929;30;20308;-79
2023/03/07 21:23:50;;;;;;;26.17;16.83;;;;;1.70;99594.00;;;;9592098;30;20224;-79
2023/03/07 21:28:53;;;;;;;29.10;17.40;;;;;1.80;99599.00;;;;9633581;30;20208;-79
2023/03/07 21:33:58;;;;;;;26.90;17.00;;;;;1.80;99586.00;;;;9639132;30;20581;-78
2023/03/07 21:39:02;;;;;;;28.13;18.20;;;;;1.80;99588.00;;;;9637859;30;20220;-79
2023/03/07 21:44:05;;;;;;;30.17;18.73;;;;;1.80;99596.00;;;;9630292;30;20213;-79
2023/03/07 21:49:07;;;;;;;26.77;17.23;;;;;1.80;99596.00;;;;9618580;30;20614;-79
2023/03/07 21:54:09;;;;;;;29.70;19.10;;;;;1.80;99588.00;;;;9625083;30;20818;-79
2023/03/07 21:59:11;;;;;;;34.17;19.47;;;;;1.90;99595.00;;;;9652809;30;20271;-79
2023/03/07 22:04:13;;;;;;;33.90;19.40;;;;;1.90;99593.00;;;;9645857;30;20220;-79
2023/03/07 22:09:15;;;;;;;31.20;19.47;;;;;1.90;99588.00;;;;9622037;30;20300;-79
2023/03/07 22:14:17;;;;;;;32.67;19.73;;;;;1.90;99592.00;;;;9603987;30;20667;-79
2023/03/07 22:19:19;;;;;;;35.50;20.97;;;;;1.90;99594.00;;;;9631656;30;20236;-79
2023/03/07 22:24:21;;;;;;;37.47;22.33;;;;;1.90;99599.00;;;;9651563;30;20557;-79
2023/03/07 22:29:23;;;;;;;36.60;22.57;;;;;1.90;99590.00;;;;9651521;30;20207;-79
2023/03/07 22:34:25;;;;;;;37.10;22.23;;;;;2.00;99589.00;;;;9636963;30;20209;-79
2023/03/07 22:39:27;;;;;;;34.13;21.03;;;;;2.00;99593.00;;;;9650514;30;20223;-78
2023/03/07 22:44:29;;;;;;;41.03;23.30;;;;;2.00;99584.00;;;;9637820;30;20211;-79
2023/03/07 22:49:31;;;;;;;34.93;20.47;;;;;2.00;99587.00;;;;9650998;30;20200;-79
2023/03/07 22:54:37;;;;;;;34.80;21.10;;;;;2.00;99577.00;;;;9650623;30;20205;-79
2023/03/07 22:59:39;;;;;;;36.03;22.00;;;;;1.90;99582.00;;;;9651224;30;20282;-79
2023/03/07 23:04:41;;;;;;;37.53;22.00;;;;;1.90;99580.00;;;;9624650;30;20311;-79
2023/03/07 23:09:43;;;;;;;34.00;20.30;;;;;1.90;99582.00;;;;9628969;30;20200;-80
2023/03/07 23:14:45;;;;;;;37.27;21.40;;;;;1.90;99566.00;;;;9638771;30;20206;-79
2023/03/07 23:19:50;;;;;;;37.27;21.23;;;;;1.90;99556.00;;;;9665955;30;20215;-79
2023/03/07 23:24:51;;;;;;;32.47;19.17;;;;;1.90;99545.00;;;;9641292;30;20219;-79
2023/03/07 23:29:53;;;;;;;35.70;20.53;;;;;1.80;99547.00;;;;9622494;30;20570;-80
2023/03/07 23:34:56;;;;;;;34.17;19.30;;;;;1.80;99545.00;;;;9631492;30;20235;-79
2023/03/07 23:39:59;;;;;;;31.80;19.47;;;;;1.80;99526.00;;;;9635032;30;20224;-79
2023/03/07 23:45:01;;;;;;;31.17;18.67;;;;;1.80;99525.00;;;;9621630;30;20221;-79
2023/03/07 23:50:06;;;;;;;31.70;18.77;;;;;1.70;99522.00;;;;9621743;30;20220;-79
2023/03/07 23:55:09;;;;;;;29.07;18.07;;;;;1.70;99522.00;;;;9639646;30;20208;-79
